Time;durP1;ratioP1;P1;durP2;ratioP2;P2;SDS_P1;SDS_P2;PMS_P1;PMS_P2;Temp;Humidity;BMP_temperature;BMP_pressure;BME280_temperature;BME280_humidity;BME280_pressure;Samples;Min_cycle;Max_cycle;Signal;HPM_P1;HPM_P2
2021/01/21 00:00:14;;;;;;;18.20;16.20;;;;;21.00;98063.00;;;;2088475;28;20223;-66
2021/01/21 00:01:14;;;;;;;18.20;16.30;;;;;21.00;98061.00;;;;2088368;28;20225;-66
2021/01/21 00:02:15;;;;;;;19.80;17.80;;;;;21.10;98060.00;;;;2089269;28;20217;-66
2021/01/21 00:03:15;;;;;;;18.15;16.25;;;;;21.00;98062.00;;;;2087866;28;20220;-66
2021/01/21 00:04:16;;;;;;;18.47;16.47;;;;;20.90;98055.00;;;;2088246;28;20227;-66
2021/01/21 00:05:17;;;;;;;17.43;15.73;;;;;21.00;98058.00;;;;2079403;28;20233;-66
2021/01/21 00:06:17;;;;;;;17.90;16.10;;;;;21.00;98043.00;;;;2080292;28;20535;-67
2021/01/21 00:07:18;;;;;;;17.83;15.93;;;;;21.00;98036.00;;;;2088322;28;20670;-66
2021/01/21 00:08:18;;;;;;;17.40;15.07;;;;;21.00;98041.00;;;;2088470;28;20220;-66
2021/01/21 00:09:20;;;;;;;16.63;14.20;;;;;21.00;98037.00;;;;2088328;28;20220;-66
2021/01/21 00:10:20;;;;;;;18.10;16.20;;;;;21.00;98037.00;;;;2088883;28;20228;-66
2021/01/21 00:11:20;;;;;;;16.57;14.87;;;;;21.00;98036.00;;;;2088378;28;20221;-66
2021/01/21 00:12:21;;;;;;;15.47;13.87;;;;;21.00;98031.00;;;;2088442;28;20221;-66
2021/01/21 00:13:21;;;;;;;15.90;13.87;;;;;21.00;98031.00;;;;2087727;28;20271;-66
2021/01/21 00:14:21;;;;;;;15.93;14.23;;;;;21.00;98015.00;;;;2088223;28;20267;-66
2021/01/21 00:15:22;;;;;;;15.33;13.80;;;;;21.00;98028.00;;;;2090529;28;20221;-65
2021/01/21 00:16:22;;;;;;;16.50;14.80;;;;;21.00;97979.00;;;;2079992;28;20723;-66
2021/01/21 00:17:22;;;;;;;15.47;13.87;;;;;21.00;98009.00;;;;2079544;28;20642;-66
2021/01/21 00:18:23;;;;;;;15.93;14.30;;;;;21.00;98015.00;;;;2079561;28;20709;-66
2021/01/21 00:19:24;;;;;;;13.37;12.07;;;;;21.00;97990.00;;;;2080665;28;20237;-67
2021/01/21 00:20:24;;;;;;;13.20;11.83;;;;;21.00;98005.00;;;;2088450;28;20969;-66
2021/01/21 00:21:24;;;;;;;14.80;13.30;;;;;21.00;98005.00;;;;2088324;28;20724;-66
2021/01/21 00:22:25;;;;;;;13.27;11.97;;;;;21.00;97996.00;;;;2088185;28;20220;-66
2021/01/21 00:23:25;;;;;;;14.13;12.63;;;;;21.00;97983.00;;;;2088447;28;20216;-66
2021/01/21 00:24:25;;;;;;;13.53;12.23;;;;;21.00;98005.00;;;;2088403;28;20222;-66
2021/01/21 00:25:26;;;;;;;13.93;12.60;;;;;21.00;97996.00;;;;2088125;28;20863;-66
2021/01/21 00:26:26;;;;;;;13.27;11.70;;;;;21.00;98007.00;;;;2079436;28;20607;-67
2021/01/21 00:27:26;;;;;;;12.70;11.40;;;;;21.00;97996.00;;;;2080298;28;20224;-67
2021/01/21 00:28:27;;;;;;;13.90;12.40;;;;;20.90;97994.00;;;;2088368;28;20576;-66
2021/01/21 00:29:27;;;;;;;13.43;12.07;;;;;21.00;98008.00;;;;2088347;28;20212;-66
2021/01/21 00:30:27;;;;;;;12.60;11.40;;;;;20.90;97997.00;;;;2088174;28;20218;-66
2021/01/21 00:31:28;;;;;;;12.23;11.03;;;;;21.00;98000.00;;;;2089200;28;20220;-66
2021/01/21 00:32:28;;;;;;;12.23;11.00;;;;;20.90;97994.00;;;;2088288;28;20251;-66
2021/01/21 00:33:28;;;;;;;13.13;11.73;;;;;21.00;97985.00;;;;2087705;28;20221;-66
2021/01/21 00:34:29;;;;;;;12.60;11.30;;;;;20.90;97986.00;;;;2088241;28;20209;-66
2021/01/21 00:35:29;;;;;;;12.33;11.13;;;;;20.90;97965.00;;;;2088908;28;20299;-66
2021/01/21 00:36:29;;;;;;;13.53;12.13;;;;;20.90;97967.00;;;;2088153;28;20212;-66
2021/01/21 00:37:30;;;;;;;13.23;11.90;;;;;20.90;97963.00;;;;2088252;28;20214;-66
2021/01/21 00:38:30;;;;;;;11.90;10.80;;;;;21.00;97965.00;;;;2088322;28;20313;-66
2021/01/21 00:39:30;;;;;;;13.97;12.57;;;;;20.90;97948.00;;;;2089150;28;20230;-66
2021/01/21 00:40:31;;;;;;;14.33;12.87;;;;;20.80;97955.00;;;;2088491;28;20216;-66
2021/01/21 00:41:31;;;;;;;14.70;12.27;;;;;20.80;97941.00;;;;2088223;28;20216;-66
2021/01/21 00:42:32;;;;;;;12.13;10.93;;;;;20.80;97945.00;;;;2088120;28;20697;-66
2021/01/21 00:43:32;;;;;;;11.43;10.30;;;;;20.90;97937.00;;;;2092540;28;20216;-66
2021/01/21 00:44:33;;;;;;;10.70;9.70;;;;;20.90;97946.00;;;;2078799;28;20974;-65
2021/01/21 00:45:33;;;;;;;11.73;10.50;;;;;20.90;97932.00;;;;2073523;28;20740;-66
2021/01/21 00:46:33;;;;;;;10.97;9.87;;;;;20.90;97933.00;;;;2087100;28;20315;-66
2021/01/21 00:47:34;;;;;;;11.30;9.80;;;;;21.00;97915.00;;;;2086930;28;20234;-66
2021/01/21 00:48:34;;;;;;;11.33;10.17;;;;;21.00;97915.00;;;;2087147;28;20217;-66
2021/01/21 00:49:34;;;;;;;10.23;9.03;;;;;21.00;97927.00;;;;2086621;28;20229;-66
2021/01/21 00:50:35;;;;;;;11.20;9.80;;;;;21.00;97915.00;;;;2086510;28;20239;-66
2021/01/21 00:51:35;;;;;;;9.70;8.70;;;;;21.00;97897.00;;;;2087631;28;20980;-66
2021/01/21 00:52:35;;;;;;;10.37;9.27;;;;;21.00;97912.00;;;;2087481;28;20250;-66
2021/01/21 00:53:35;;;;;;;10.53;9.53;;;;;21.00;97908.00;;;;2084713;28;20789;-66
2021/01/21 00:54:36;;;;;;;10.10;9.10;;;;;20.90;97917.00;;;;2078467;28;20723;-65
2021/01/21 00:55:36;;;;;;;9.90;8.90;;;;;20.90;97904.00;;;;2078568;28;20602;-66
2021/01/21 00:56:37;;;;;;;9.23;8.33;;;;;21.00;97912.00;;;;2087392;28;20782;-66
2021/01/21 00:57:37;;;;;;;9.47;8.20;;;;;20.90;97904.00;;;;2087611;28;20247;-66
2021/01/21 00:58:37;;;;;;;8.83;8.00;;;;;20.90;97909.00;;;;2087508;28;20216;-66
2021/01/21 00:59:38;;;;;;;9.20;8.30;;;;;21.00;97924.00;;;;2087446;28;20227;-66
2021/01/21 01:00:38;;;;;;;8.77;7.80;;;;;21.00;97905.00;;;;2087517;28;20410;-66
2021/01/21 01:01:38;;;;;;;9.57;8.03;;;;;21.00;97900.00;;;;2088094;28;20224;-65
2021/01/21 01:02:39;;;;;;;9.10;8.20;;;;;20.90;97901.00;;;;2087181;28;20229;-66
2021/01/21 01:03:39;;;;;;;8.10;7.20;;;;;21.00;97902.00;;;;2087126;28;20233;-66
2021/01/21 01:04:40;;;;;;;10.27;8.30;;;;;20.90;97892.00;;;;2078175;28;20655;-65
2021/01/21 01:05:40;;;;;;;8.43;7.53;;;;;20.90;97897.00;;;;2078574;28;20575;-66
2021/01/21 01:06:41;;;;;;;9.33;8.30;;;;;20.90;97908.00;;;;2078722;28;20228;-66
2021/01/21 01:07:41;;;;;;;8.20;7.40;;;;;20.90;97894.00;;;;2078710;28;20319;-66
2021/01/21 01:08:41;;;;;;;7.93;7.13;;;;;20.80;97911.00;;;;2088736;28;20212;-67
2021/01/21 01:09:42;;;;;;;7.60;6.70;;;;;20.90;97896.00;;;;2089155;28;20223;-66
2021/01/21 01:10:42;;;;;;;7.80;7.10;;;;;20.90;97884.00;;;;2088549;28;20219;-66
2021/01/21 01:11:42;;;;;;;8.50;7.60;;;;;20.90;97904.00;;;;2089058;28;20220;-66
2021/01/21 01:12:43;;;;;;;8.30;7.43;;;;;20.90;97885.00;;;;2088407;28;20220;-65
2021/01/21 01:13:43;;;;;;;8.10;7.30;;;;;20.90;97878.00;;;;2089047;28;20263;-66
2021/01/21 01:14:44;;;;;;;8.20;7.33;;;;;20.90;97887.00;;;;2088583;28;20212;-65
2021/01/21 01:15:44;;;;;;;7.45;6.75;;;;;20.90;97882.00;;;;2084887;28;20223;-66
2021/01/21 01:16:45;;;;;;;7.87;7.07;;;;;20.90;97883.00;;;;2089117;28;20213;-66
2021/01/21 01:17:45;;;;;;;7.10;6.30;;;;;20.90;97895.00;;;;2089093;28;20213;-66
2021/01/21 01:18:45;;;;;;;6.63;5.93;;;;;20.90;97881.00;;;;2089151;28;20225;-66
2021/01/21 01:19:46;;;;;;;7.00;6.30;;;;;20.90;97879.00;;;;2089066;28;20215;-66
2021/01/21 01:20:48;;;;;;;6.87;6.17;;;;;20.90;97873.00;;;;2088857;28;20220;-66
2021/01/21 01:21:49;;;;;;;6.82;6.13;;;;;20.90;97880.00;;;;2089002;28;20697;-66
2021/01/21 01:22:50;;;;;;;7.07;6.23;;;;;20.90;97866.00;;;;2088235;28;20224;-66
2021/01/21 01:23:52;;;;;;;6.60;6.00;;;;;20.90;97866.00;;;;2088833;28;20232;-66
2021/01/21 01:24:52;;;;;;;7.03;6.40;;;;;20.90;97881.00;;;;2088545;28;20242;-66
2021/01/21 01:25:53;;;;;;;6.67;6.03;;;;;20.90;97855.00;;;;2089164;28;20215;-65
2021/01/21 01:26:53;;;;;;;6.00;5.50;;;;;20.90;97841.00;;;;2089001;28;20210;-65
2021/01/21 01:27:53;;;;;;;5.90;5.30;;;;;20.90;97857.00;;;;2088900;28;20454;-65
2021/01/21 01:28:54;;;;;;;5.97;5.37;;;;;20.90;97853.00;;;;2089109;28;20213;-65
2021/01/21 01:29:54;;;;;;;6.53;5.83;;;;;20.90;97850.00;;;;2088854;28;20299;-66
2021/01/21 01:30:54;;;;;;;6.07;5.50;;;;;20.90;97822.00;;;;2088840;28;20221;-66
2021/01/21 01:31:55;;;;;;;7.10;5.67;;;;;20.90;97818.00;;;;2088695;28;20217;-66
2021/01/21 01:32:55;;;;;;;6.23;5.63;;;;;20.90;97842.00;;;;2088539;28;20243;-66
2021/01/21 01:33:55;;;;;;;5.50;5.00;;;;;20.90;97841.00;;;;2088866;28;20679;-66
2021/01/21 01:34:56;;;;;;;6.27;5.47;;;;;20.90;97836.00;;;;2088624;28;20702;-65
2021/01/21 01:35:56;;;;;;;7.10;5.50;;;;;20.90;97829.00;;;;2088898;28;20749;-66
2021/01/21 01:36:56;;;;;;;6.07;5.43;;;;;20.90;97820.00;;;;2089078;28;20683;-66
2021/01/21 01:37:57;;;;;;;5.77;4.93;;;;;20.90;97835.00;;;;2088855;28;20690;-66
2021/01/21 01:38:57;;;;;;;6.50;5.47;;;;;20.90;97821.00;;;;2087490;28;20201;-66
2021/01/21 01:39:57;;;;;;;7.03;4.70;;;;;20.90;97827.00;;;;2080133;28;20229;-66
2021/01/21 01:40:58;;;;;;;5.40;4.90;;;;;20.90;97816.00;;;;2079944;28;20690;-66
2021/01/21 01:41:58;;;;;;;5.10;4.60;;;;;20.90;97812.00;;;;2088803;28;20239;-66
2021/01/21 01:42:58;;;;;;;5.17;4.67;;;;;20.90;97815.00;;;;2088348;28;20683;-66
2021/01/21 01:43:59;;;;;;;5.50;4.80;;;;;20.90;97817.00;;;;2079981;28;20210;-66
2021/01/21 01:44:59;;;;;;;5.93;4.77;;;;;20.90;97832.00;;;;2077164;28;20838;-66
2021/01/21 01:45:59;;;;;;;5.83;5.23;;;;;20.90;97814.00;;;;2086507;28;20716;-66
2021/01/21 01:47:00;;;;;;;4.83;4.30;;;;;20.90;97826.00;;;;2079917;28;20213;-66
2021/01/21 01:48:00;;;;;;;5.20;4.70;;;;;20.90;97817.00;;;;2080036;28;20213;-66
2021/01/21 01:49:00;;;;;;;5.10;4.00;;;;;20.90;97821.00;;;;2088690;28;20231;-66
2021/01/21 01:50:01;;;;;;;5.73;4.80;;;;;20.90;97826.00;;;;2079974;28;20223;-66
2021/01/21 01:51:02;;;;;;;4.87;4.37;;;;;20.90;97827.00;;;;2071799;28;20222;-66
2021/01/21 01:52:02;;;;;;;5.07;4.57;;;;;20.90;97797.00;;;;2071413;28;20226;-66
2021/01/21 01:53:02;;;;;;;4.67;4.20;;;;;20.80;97799.00;;;;2071272;28;20491;-66
2021/01/21 01:54:03;;;;;;;4.37;3.97;;;;;20.90;97811.00;;;;2071349;28;20781;-66
2021/01/21 01:55:05;;;;;;;5.57;4.40;;;;;20.80;97802.00;;;;2071736;28;20697;-66
2021/01/21 01:56:05;;;;;;;5.15;4.15;;;;;20.90;97804.00;;;;2080117;28;20718;-66
2021/01/21 01:57:05;;;;;;;3.90;3.60;;;;;20.80;97784.00;;;;2088733;28;20208;-66
2021/01/21 01:58:08;;;;;;;5.30;4.80;;;;;20.80;97798.00;;;;2079966;28;20205;-66
2021/01/21 01:59:08;;;;;;;4.28;3.88;;;;;20.80;97787.00;;;;2080162;28;20293;-66
2021/01/21 02:00:09;;;;;;;4.20;3.80;;;;;20.80;97780.00;;;;2088298;28;20216;-66
2021/01/21 02:01:09;;;;;;;5.50;4.10;;;;;20.80;97778.00;;;;2088596;28;20240;-66
2021/01/21 02:02:09;;;;;;;4.13;3.83;;;;;20.80;97787.00;;;;2076276;28;20437;-66
2021/01/21 02:03:10;;;;;;;6.23;4.20;;;;;20.80;97783.00;;;;2079389;28;20776;-66
2021/01/21 02:04:11;;;;;;;4.53;3.57;;;;;20.80;97792.00;;;;2079409;28;20218;-66
2021/01/21 02:05:11;;;;;;;4.03;3.63;;;;;20.80;97745.00;;;;2079956;28;20217;-66
2021/01/21 02:06:11;;;;;;;4.33;3.43;;;;;20.80;97755.00;;;;2088715;28;20221;-66
2021/01/21 02:07:15;;;;;;;6.87;4.27;;;;;20.80;97765.00;;;;2088605;28;20243;-66
2021/01/21 02:08:16;;;;;;;4.03;3.70;;;;;20.80;97780.00;;;;2080637;28;20217;-66
2021/01/21 02:09:16;;;;;;;5.25;4.10;;;;;20.80;97788.00;;;;2080058;28;20272;-66
2021/01/21 02:10:17;;;;;;;3.60;3.30;;;;;20.80;97765.00;;;;2079720;28;20256;-66
2021/01/21 02:11:30;;;;;;;4.00;3.30;;;;;20.80;97751.00;;;;2079982;28;20236;-66
2021/01/21 02:12:54;;;;;;;3.83;3.25;;;;;20.80;97756.00;;;;2061400;28;20210;-66
2021/01/21 02:14:02;;;;;;;3.13;2.90;;;;;20.80;97772.00;;;;2061454;28;20211;-66
2021/01/21 02:15:24;;;;;;;3.58;3.22;;;;;20.80;97772.00;;;;2063220;28;20235;-66
2021/01/21 02:16:47;;;;;;;3.80;3.38;;;;;20.80;97760.00;;;;2072177;28;20300;-67
2021/01/21 02:17:51;;;;;;;3.85;3.45;;;;;20.70;97768.00;;;;2072006;28;20223;-66
2021/01/21 02:19:25;;;;;;;3.55;2.95;;;;;20.70;97766.00;;;;2071808;28;20242;-66
2021/01/21 02:20:35;;;;;;;3.65;3.35;;;;;20.70;97757.00;;;;2073446;28;20304;-66
2021/01/21 02:21:57;;;;;;;3.53;3.00;;;;;20.70;97769.00;;;;2079570;28;20217;-66
2021/01/21 02:23:19;;;;;;;3.20;2.88;;;;;20.70;97766.00;;;;2082798;28;20222;-66
2021/01/21 02:24:38;;;;;;;3.70;3.30;;;;;20.70;97765.00;;;;2071680;28;20218;-66
2021/01/21 02:25:51;;;;;;;3.53;2.83;;;;;20.70;97760.00;;;;2079547;28;20683;-66
2021/01/21 02:26:53;;;;;;;3.47;3.17;;;;;20.70;97759.00;;;;2076417;28;20213;-66
2021/01/21 02:28:09;;;;;;;3.20;2.90;;;;;20.70;97740.00;;;;2071421;28;20223;-66
2021/01/21 02:29:30;;;;;;;3.95;2.75;;;;;20.70;97756.00;;;;2080915;28;20742;-66
2021/01/21 02:30:49;;;;;;;3.42;2.90;;;;;20.70;97734.00;;;;2081999;28;20224;-66
2021/01/21 02:32:02;;;;;;;2.75;2.55;;;;;20.70;97727.00;;;;2088412;28;20224;-66
2021/01/21 02:33:29;;;;;;;3.40;3.05;;;;;20.70;97722.00;;;;2078776;28;20227;-66
2021/01/21 02:34:44;;;;;;;2.80;2.33;;;;;20.70;97723.00;;;;2074667;28;20207;-65
2021/01/21 02:35:45;;;;;;;2.53;2.20;;;;;20.60;97707.00;;;;2081588;28;20200;-66
2021/01/21 02:36:51;;;;;;;3.80;2.87;;;;;20.60;97700.00;;;;2079643;28;20211;-66
2021/01/21 02:37:54;;;;;;;3.35;2.55;;;;;20.60;97703.00;;;;2072157;28;20232;-66
2021/01/21 02:38:55;;;;;;;3.03;2.60;;;;;20.70;97700.00;;;;2080285;28;20221;-66
2021/01/21 02:39:56;;;;;;;2.80;2.60;;;;;20.70;97707.00;;;;2079770;28;20271;-66
2021/01/21 02:40:56;;;;;;;3.25;2.95;;;;;20.70;97703.00;;;;2079482;28;20219;-66
2021/01/21 02:41:57;;;;;;;2.93;2.60;;;;;20.70;97696.00;;;;2079583;28;20598;-66
2021/01/21 02:42:57;;;;;;;2.93;2.63;;;;;20.70;97700.00;;;;2078966;28;20677;-66
2021/01/21 02:43:57;;;;;;;3.00;2.30;;;;;20.70;97709.00;;;;2088370;28;20265;-66
2021/01/21 02:44:58;;;;;;;3.20;2.13;;;;;20.70;97716.00;;;;2088018;28;20217;-66
2021/01/21 02:45:58;;;;;;;2.67;2.47;;;;;20.70;97714.00;;;;2087791;28;20563;-66
2021/01/21 02:46:58;;;;;;;2.93;2.53;;;;;20.70;97703.00;;;;2087617;28;20574;-66
2021/01/21 02:48:00;;;;;;;3.50;2.50;;;;;20.70;97700.00;;;;2088027;28;20755;-66
2021/01/21 02:49:00;;;;;;;2.50;2.30;;;;;20.70;97692.00;;;;2078788;28;20582;-65
2021/01/21 02:50:01;;;;;;;3.20;2.47;;;;;20.60;97705.00;;;;2070802;28;20222;-66
2021/01/21 02:51:09;;;;;;;2.97;2.40;;;;;20.70;97701.00;;;;2078693;28;20749;-66
2021/01/21 02:52:48;;;;;;;4.38;2.70;;;;;20.70;97700.00;;;;2063903;28;20232;-66
2021/01/21 02:53:52;;;;;;;2.65;2.45;;;;;20.60;97684.00;;;;2065942;28;20583;-66
2021/01/21 02:54:55;;;;;;;2.90;2.55;;;;;20.60;97695.00;;;;2074976;28;20228;-66
2021/01/21 02:56:01;;;;;;;2.63;2.42;;;;;20.60;97695.00;;;;2067928;28;20219;-66
2021/01/21 02:57:15;;;;;;;2.67;2.30;;;;;20.60;97704.00;;;;2078776;28;20224;-66
2021/01/21 02:58:44;;;;;;;2.40;2.00;;;;;20.60;97712.00;;;;2072580;28;20232;-66
2021/01/21 02:59:44;;;;;;;2.92;2.35;;;;;20.60;97681.00;;;;2079341;28;20213;-66
2021/01/21 03:00:45;;;;;;;2.70;2.30;;;;;20.60;97700.00;;;;2071166;28;20201;-66
2021/01/21 03:01:46;;;;;;;2.80;2.50;;;;;20.60;97694.00;;;;2063137;28;20250;-66
2021/01/21 03:02:49;;;;;;;2.20;2.00;;;;;20.60;97696.00;;;;2046663;28;20223;-66
2021/01/21 03:03:49;;;;;;;2.63;2.30;;;;;20.60;97693.00;;;;2055549;28;20213;-66
2021/01/21 03:04:51;;;;;;;2.53;2.20;;;;;20.60;97674.00;;;;2054912;28;20223;-66
2021/01/21 03:05:55;;;;;;;2.70;2.22;;;;;20.60;97677.00;;;;2060222;28;20322;-66
2021/01/21 03:06:57;;;;;;;3.35;2.20;;;;;20.60;97692.00;;;;2079764;28;20245;-66
2021/01/21 03:07:57;;;;;;;2.40;2.20;;;;;20.60;97689.00;;;;2071310;28;20279;-66
2021/01/21 03:08:58;;;;;;;2.47;2.27;;;;;20.60;97668.00;;;;2071193;28;20290;-66
2021/01/21 03:09:58;;;;;;;2.47;2.28;;;;;20.60;97687.00;;;;2088220;28;20766;-66
2021/01/21 03:11:11;;;;;;;2.33;2.07;;;;;20.60;97696.00;;;;2079118;28;20233;-66
2021/01/21 03:12:25;;;;;;;3.05;1.80;;;;;20.60;97686.00;;;;2080930;28;20223;-66
2021/01/21 03:13:26;;;;;;;2.88;2.40;;;;;20.60;97688.00;;;;2080882;28;20224;-66
2021/01/21 03:14:26;;;;;;;2.43;2.17;;;;;20.60;97675.00;;;;2079493;28;20662;-66
2021/01/21 03:15:27;;;;;;;2.10;1.90;;;;;20.60;97692.00;;;;2079027;28;20769;-66
2021/01/21 03:16:27;;;;;;;1.70;1.60;;;;;20.60;97675.00;;;;2088197;28;20767;-66
2021/01/21 03:17:28;;;;;;;1.97;1.80;;;;;20.60;97690.00;;;;2088059;28;20699;-66
2021/01/21 03:18:28;;;;;;;1.90;1.75;;;;;20.60;97682.00;;;;2088097;28;20261;-66
2021/01/21 03:19:29;;;;;;;2.07;1.87;;;;;20.60;97674.00;;;;2087625;28;20219;-66
2021/01/21 03:20:29;;;;;;;2.93;1.70;;;;;20.60;97682.00;;;;2088124;28;20280;-66
2021/01/21 03:21:29;;;;;;;3.00;2.00;;;;;20.60;97670.00;;;;2088062;28;20206;-66
2021/01/21 03:22:30;;;;;;;2.40;1.83;;;;;20.60;97661.00;;;;2088043;28;20219;-66
2021/01/21 03:23:30;;;;;;;2.10;1.90;;;;;20.60;97661.00;;;;2087542;28;20219;-66
2021/01/21 03:24:30;;;;;;;1.90;1.70;;;;;20.60;97682.00;;;;2088201;28;20224;-66
2021/01/21 03:25:31;;;;;;;2.73;2.20;;;;;20.60;97683.00;;;;2087854;28;20235;-66
2021/01/21 03:26:31;;;;;;;3.83;1.80;;;;;20.60;97661.00;;;;2088145;28;20212;-66
2021/01/21 03:27:31;;;;;;;1.90;1.80;;;;;20.60;97670.00;;;;2087234;28;20215;-65
2021/01/21 03:28:32;;;;;;;2.60;1.90;;;;;20.60;97659.00;;;;2087397;28;20212;-66
2021/01/21 03:29:32;;;;;;;2.00;1.80;;;;;20.60;97645.00;;;;2087186;28;20687;-66
2021/01/21 03:30:32;;;;;;;2.40;2.00;;;;;20.60;97669.00;;;;2086520;28;20338;-66
2021/01/21 03:31:32;;;;;;;2.23;1.90;;;;;20.60;97671.00;;;;2086837;28;20215;-66
2021/01/21 03:32:34;;;;;;;1.70;1.60;;;;;20.50;97659.00;;;;2086865;28;20247;-66
2021/01/21 03:33:34;;;;;;;1.90;1.80;;;;;20.50;97668.00;;;;2086342;28;20250;-66
2021/01/21 03:34:34;;;;;;;2.50;1.90;;;;;20.50;97655.00;;;;2087569;28;20216;-66
2021/01/21 03:35:34;;;;;;;4.67;1.80;;;;;20.50;97650.00;;;;2087114;28;20238;-66
2021/01/21 03:36:35;;;;;;;2.10;1.87;;;;;20.50;97667.00;;;;2087575;28;20219;-66
2021/01/21 03:37:35;;;;;;;1.87;1.53;;;;;20.50;97669.00;;;;2087877;28;20240;-66
2021/01/21 03:38:35;;;;;;;2.10;1.80;;;;;20.50;97670.00;;;;2087924;28;20212;-66
2021/01/21 03:39:36;;;;;;;2.10;1.90;;;;;20.50;97650.00;;;;2088112;28;20571;-65
2021/01/21 03:40:36;;;;;;;4.10;1.97;;;;;20.50;97655.00;;;;2087200;28;20602;-66
2021/01/21 03:41:36;;;;;;;2.60;1.97;;;;;20.50;97662.00;;;;2087959;28;20583;-66
2021/01/21 03:42:37;;;;;;;2.47;1.73;;;;;20.50;97669.00;;;;2079178;28;20729;-66
2021/01/21 03:43:37;;;;;;;1.80;1.70;;;;;20.50;97653.00;;;;2078645;28;20228;-66
2021/01/21 03:44:37;;;;;;;1.60;1.50;;;;;20.50;97677.00;;;;2087907;28;20206;-66
2021/01/21 03:45:38;;;;;;;1.77;1.67;;;;;20.50;97652.00;;;;2087697;28;20262;-66
2021/01/21 03:46:38;;;;;;;2.03;1.63;;;;;20.50;97653.00;;;;2088020;28;20710;-66
2021/01/21 03:47:38;;;;;;;2.57;1.50;;;;;20.60;97663.00;;;;2087742;28;20212;-65
2021/01/21 03:48:39;;;;;;;1.80;1.63;;;;;20.50;97649.00;;;;2087821;28;20208;-66
2021/01/21 03:49:39;;;;;;;2.70;1.70;;;;;20.50;97648.00;;;;2087847;28;20223;-65
2021/01/21 03:50:39;;;;;;;1.73;1.50;;;;;20.50;97657.00;;;;2087815;28;20315;-66
2021/01/21 03:51:40;;;;;;;2.20;1.43;;;;;20.50;97651.00;;;;2087745;28;20216;-65
2021/01/21 03:52:40;;;;;;;1.50;1.33;;;;;20.50;97656.00;;;;2087690;28;20362;-66
2021/01/21 03:53:41;;;;;;;1.40;1.30;;;;;20.50;97659.00;;;;2087405;28;20707;-66
2021/01/21 03:54:41;;;;;;;2.37;1.60;;;;;20.50;97662.00;;;;2087879;28;20673;-66
2021/01/21 03:55:41;;;;;;;2.07;1.83;;;;;20.50;97654.00;;;;2087660;28;20217;-65
2021/01/21 03:56:41;;;;;;;2.57;1.60;;;;;20.50;97651.00;;;;2087843;28;20222;-66
2021/01/21 03:57:42;;;;;;;1.80;1.53;;;;;20.50;97661.00;;;;2087827;28;20209;-66
2021/01/21 03:58:42;;;;;;;2.00;1.80;;;;;20.50;97658.00;;;;2087842;28;20217;-66
2021/01/21 03:59:42;;;;;;;1.73;1.50;;;;;20.50;97655.00;;;;2087601;28;20217;-66
2021/01/21 04:00:43;;;;;;;1.60;1.47;;;;;20.50;97669.00;;;;2086310;28;20296;-66
2021/01/21 04:01:43;;;;;;;1.67;1.47;;;;;20.50;97648.00;;;;2087466;28;20219;-66
2021/01/21 04:02:43;;;;;;;1.70;1.60;;;;;20.50;97668.00;;;;2087046;28;20222;-66
2021/01/21 04:03:44;;;;;;;1.87;1.67;;;;;20.50;97665.00;;;;2087566;28;20248;-66
2021/01/21 04:04:44;;;;;;;1.77;1.63;;;;;20.50;97664.00;;;;2087702;28;20215;-66
2021/01/21 04:05:44;;;;;;;1.73;1.53;;;;;20.50;97658.00;;;;2087672;28;20202;-66
2021/01/21 04:06:45;;;;;;;2.00;1.40;;;;;20.50;97656.00;;;;2087488;28;20279;-66
2021/01/21 04:07:45;;;;;;;2.53;1.37;;;;;20.50;97660.00;;;;2087788;28;20214;-66
2021/01/21 04:08:45;;;;;;;1.87;1.43;;;;;20.50;97663.00;;;;2087964;28;20217;-66
2021/01/21 04:09:46;;;;;;;2.07;1.63;;;;;20.50;97671.00;;;;2087737;28;20200;-66
2021/01/21 04:10:46;;;;;;;2.00;1.40;;;;;20.50;97665.00;;;;2087760;28;20295;-66
2021/01/21 04:11:46;;;;;;;2.30;1.70;;;;;20.50;97664.00;;;;2087658;28;20216;-66
2021/01/21 04:12:47;;;;;;;1.53;1.43;;;;;20.50;97656.00;;;;2087276;28;20749;-66
2021/01/21 04:13:47;;;;;;;1.83;1.33;;;;;20.50;97667.00;;;;2087462;28;20691;-66
2021/01/21 04:14:48;;;;;;;1.60;1.50;;;;;20.50;97659.00;;;;2087684;28;20299;-66
2021/01/21 04:15:48;;;;;;;1.90;1.53;;;;;20.50;97662.00;;;;2087385;28;20692;-66
2021/01/21 04:16:48;;;;;;;2.30;1.60;;;;;20.50;97663.00;;;;2087798;28;20216;-66
2021/01/21 04:17:49;;;;;;;3.50;1.60;;;;;20.50;97647.00;;;;2087137;28;20237;-66
2021/01/21 04:18:49;;;;;;;2.30;1.40;;;;;20.50;97645.00;;;;2087686;28;20210;-66
2021/01/21 04:19:49;;;;;;;1.60;1.50;;;;;20.50;97659.00;;;;2087623;28;20447;-66
2021/01/21 04:20:49;;;;;;;1.77;1.50;;;;;20.50;97675.00;;;;2087686;28;20208;-66
2021/01/21 04:21:51;;;;;;;2.03;1.20;;;;;20.50;97661.00;;;;2087566;28;20213;-66
2021/01/21 04:22:51;;;;;;;1.77;1.35;;;;;20.40;97652.00;;;;2087203;28;20214;-66
2021/01/21 04:23:54;;;;;;;1.43;1.30;;;;;20.40;97666.00;;;;2077633;28;20254;-66
2021/01/21 04:24:55;;;;;;;1.60;1.50;;;;;20.40;97670.00;;;;2087019;28;20583;-66
2021/01/21 04:25:55;;;;;;;1.90;1.20;;;;;20.40;97643.00;;;;2087134;28;20217;-66
2021/01/21 04:26:55;;;;;;;1.60;1.20;;;;;20.40;97645.00;;;;2078815;28;20217;-66
2021/01/21 04:27:56;;;;;;;1.23;1.13;;;;;20.40;97650.00;;;;2078663;28;20216;-66
2021/01/21 04:28:56;;;;;;;1.77;1.23;;;;;20.40;97648.00;;;;2087630;28;20566;-66
2021/01/21 04:29:56;;;;;;;1.40;1.30;;;;;20.50;97674.00;;;;2087577;28;20224;-66
2021/01/21 04:30:57;;;;;;;1.63;1.10;;;;;20.40;97667.00;;;;2087319;28;20253;-66
2021/01/21 04:31:57;;;;;;;1.30;1.20;;;;;20.40;97660.00;;;;2084906;28;20239;-66
2021/01/21 04:32:57;;;;;;;1.53;1.43;;;;;20.40;97661.00;;;;2084650;28;20216;-66
2021/01/21 04:33:58;;;;;;;1.40;1.30;;;;;20.40;97641.00;;;;2087561;28;20224;-66
2021/01/21 04:34:58;;;;;;;1.20;1.10;;;;;20.40;97661.00;;;;2077680;28;20330;-66
2021/01/21 04:35:58;;;;;;;1.63;1.33;;;;;20.40;97675.00;;;;2078667;28;20232;-66
2021/01/21 04:36:59;;;;;;;1.70;1.23;;;;;20.40;97674.00;;;;2087604;28;20256;-66
2021/01/21 04:37:59;;;;;;;1.30;1.10;;;;;20.40;97663.00;;;;2087519;28;20217;-66
2021/01/21 04:39:00;;;;;;;1.50;1.40;;;;;20.40;97643.00;;;;2087639;28;20226;-66
2021/01/21 04:40:00;;;;;;;1.47;1.37;;;;;20.40;97656.00;;;;2086999;28;20217;-66
2021/01/21 04:41:01;;;;;;;2.30;1.00;;;;;20.40;97653.00;;;;2087512;28;20245;-66
2021/01/21 04:42:01;;;;;;;1.20;1.10;;;;;20.40;97659.00;;;;2078308;28;20222;-66
2021/01/21 04:43:01;;;;;;;1.20;1.10;;;;;20.40;97667.00;;;;2078326;28;20631;-66
2021/01/21 04:44:02;;;;;;;1.00;0.83;;;;;20.40;97638.00;;;;2089204;28;20238;-66
2021/01/21 04:45:03;;;;;;;1.50;1.20;;;;;20.40;97652.00;;;;2089209;28;20301;-66
2021/01/21 04:46:07;;;;;;;1.55;1.10;;;;;20.40;97662.00;;;;2088882;28;20237;-66
2021/01/21 04:47:08;;;;;;;1.88;1.30;;;;;20.40;97645.00;;;;2089321;28;20216;-66
2021/01/21 04:48:08;;;;;;;1.57;1.00;;;;;20.40;97647.00;;;;2089308;28;20583;-66
2021/01/21 04:49:08;;;;;;;2.07;1.20;;;;;20.40;97628.00;;;;2080546;28;20212;-66
2021/01/21 04:50:09;;;;;;;1.47;1.00;;;;;20.40;97644.00;;;;2071717;28;20214;-66
2021/01/21 04:51:10;;;;;;;1.10;1.00;;;;;20.40;97635.00;;;;2072221;28;20729;-66
2021/01/21 04:52:10;;;;;;;1.37;0.97;;;;;20.40;97635.00;;;;2072205;28;21388;-66
2021/01/21 04:53:11;;;;;;;1.30;0.90;;;;;20.40;97627.00;;;;2063737;28;20222;-66
2021/01/21 04:54:11;;;;;;;1.67;1.10;;;;;20.40;97635.00;;;;2071859;28;20218;-66
2021/01/21 04:55:21;;;;;;;0.83;0.80;;;;;20.40;97615.00;;;;2072225;28;20243;-66
2021/01/21 04:56:24;;;;;;;1.45;1.33;;;;;20.40;97613.00;;;;2067752;28;20611;-66
2021/01/21 04:57:28;;;;;;;1.30;1.17;;;;;20.40;97650.00;;;;2080664;28;20236;-66
2021/01/21 04:58:38;;;;;;;1.45;1.00;;;;;20.40;97627.00;;;;2073080;28;20366;-66
2021/01/21 04:59:38;;;;;;;1.23;1.10;;;;;20.40;97621.00;;;;2073360;28;20213;-66
2021/01/21 05:00:39;;;;;;;1.50;0.90;;;;;20.40;97631.00;;;;2072202;28;20300;-66
2021/01/21 05:01:39;;;;;;;1.00;0.90;;;;;20.40;97629.00;;;;2080511;28;20324;-66
2021/01/21 05:02:40;;;;;;;1.83;1.10;;;;;20.40;97633.00;;;;2080182;28;20667;-66
2021/01/21 05:03:40;;;;;;;1.53;1.17;;;;;20.40;97612.00;;;;2071732;28;20716;-66
2021/01/21 05:04:41;;;;;;;1.47;0.90;;;;;20.40;97609.00;;;;2063821;28;20219;-66
2021/01/21 05:05:41;;;;;;;1.40;1.07;;;;;20.40;97623.00;;;;2075443;28;20220;-66
2021/01/21 05:06:41;;;;;;;1.13;1.00;;;;;20.30;97614.00;;;;2080399;28;20256;-66
2021/01/21 05:07:42;;;;;;;1.03;0.80;;;;;20.30;97599.00;;;;2089040;28;20215;-66
2021/01/21 05:08:42;;;;;;;1.53;0.80;;;;;20.30;97626.00;;;;2089122;28;20299;-66